ABW3186 ULLI-UHPP
Flight info
| Callsign | ABW3186 |
|---|---|
| Flight time | N/A |
| Altitude | 35000 |
| Route | RELNI1C RELNI T693 DISUP T821 ARGIP M58 RIGNI L168 NRM M131 LABAR T411 MORUT/K0882F370 T411 OLEGA A812 KORIP/K0885F390 A812 BAKEN BAKEN5P |
| Aircraft | B77L/H-SDE1E2E3FGHIJ2J3J4J5M1RWXY/LB1D1 |
Departure
| Time | N/A |
|---|---|
| Airport | Pulkovo Airport (ULLI) |
Arrival
| Time | 2026-04-11 21:35 |
|---|---|
| Airport | Yelizovo Airport (UHPP) |
| Time | Latitude | Longitude | Altitude | Speed | Heading |
|---|---|---|---|---|---|
| 2026-04-11 20:45 | 55.04587 | 156.60772 | 38930 ft | 481 kts | 156° |
| 2026-04-11 20:45 | 55.01714 | 156.63746 | 38904 ft | 479 kts | 156° |
| 2026-04-11 20:45 | 54.98849 | 156.66712 | 38588 ft | 482 kts | 156° |
| 2026-04-11 20:45 | 54.95945 | 156.69724 | 37955 ft | 485 kts | 156° |
| 2026-04-11 20:46 | 54.93070 | 156.72706 | 37474 ft | 478 kts | 156° |
| 2026-04-11 20:46 | 54.90287 | 156.75594 | 37323 ft | 462 kts | 157° |
| 2026-04-11 20:47 | 54.82158 | 156.83961 | 37321 ft | 450 kts | 158° |
| 2026-04-11 20:47 | 54.76760 | 156.89418 | 37315 ft | 449 kts | 158° |
| 2026-04-11 20:48 | 54.71375 | 156.94919 | 37320 ft | 451 kts | 158° |
| 2026-04-11 20:48 | 54.65956 | 157.00418 | 37332 ft | 452 kts | 158° |
| 2026-04-11 20:49 | 54.60502 | 157.05931 | 37319 ft | 454 kts | 158° |
| 2026-04-11 20:49 | 54.55062 | 157.11460 | 37324 ft | 454 kts | 158° |
| 2026-04-11 20:50 | 54.49646 | 157.16917 | 37312 ft | 453 kts | 158° |
| 2026-04-11 20:50 | 54.44221 | 157.22361 | 37131 ft | 446 kts | 158° |
| 2026-04-11 20:50 | 54.41549 | 157.25039 | 36819 ft | 443 kts | 158° |
| 2026-04-11 20:51 | 54.38901 | 157.27690 | 36567 ft | 438 kts | 159° |
| 2026-04-11 20:51 | 54.36288 | 157.30313 | 36345 ft | 435 kts | 159° |
| 2026-04-11 20:51 | 54.33659 | 157.32938 | 36372 ft | 441 kts | 159° |
| 2026-04-11 20:52 | 54.28269 | 157.38290 | 35849 ft | 452 kts | 159° |
| 2026-04-11 20:52 | 54.25560 | 157.40981 | 35344 ft | 449 kts | 160° |
| 2026-04-11 20:52 | 54.22877 | 157.43658 | 34816 ft | 444 kts | 160° |
| 2026-04-11 20:52 | 54.20221 | 157.46300 | 34283 ft | 439 kts | 161° |
| 2026-04-11 20:53 | 54.17612 | 157.48884 | 33738 ft | 432 kts | 161° |
| 2026-04-11 20:53 | 54.15018 | 157.51450 | 33237 ft | 426 kts | 161° |
| 2026-04-11 20:53 | 54.12485 | 157.53955 | 32675 ft | 413 kts | 161° |
| 2026-04-11 20:53 | 54.10055 | 157.56369 | 32168 ft | 398 kts | 161° |
| 2026-04-11 20:54 | 54.07686 | 157.58709 | 31732 ft | 393 kts | 161° |
| 2026-04-11 20:54 | 54.05325 | 157.61039 | 31222 ft | 392 kts | 160° |
| 2026-04-11 20:54 | 54.02998 | 157.63331 | 30743 ft | 389 kts | 160° |
| 2026-04-11 20:54 | 54.00661 | 157.65620 | 30266 ft | 386 kts | 160° |
| 2026-04-11 20:55 | 53.98340 | 157.67889 | 29798 ft | 384 kts | 159° |
| 2026-04-11 20:55 | 53.96029 | 157.70159 | 29308 ft | 383 kts | 159° |
| 2026-04-11 20:55 | 53.93730 | 157.72417 | 28814 ft | 381 kts | 158° |
| 2026-04-11 20:55 | 53.91440 | 157.74663 | 28334 ft | 379 kts | 158° |
| 2026-04-11 20:56 | 53.89164 | 157.76893 | 27862 ft | 377 kts | 158° |
| 2026-04-11 20:56 | 53.86893 | 157.79110 | 27369 ft | 376 kts | 158° |
| 2026-04-11 20:56 | 53.84631 | 157.81319 | 26897 ft | 375 kts | 157° |
| 2026-04-11 20:56 | 53.82374 | 157.83524 | 26416 ft | 374 kts | 157° |
| 2026-04-11 20:57 | 53.80125 | 157.85716 | 25946 ft | 372 kts | 157° |
| 2026-04-11 20:57 | 53.77880 | 157.87898 | 25483 ft | 371 kts | 156° |
| 2026-04-11 20:57 | 53.75644 | 157.90058 | 25036 ft | 369 kts | 156° |
| 2026-04-11 20:57 | 53.73412 | 157.92201 | 24573 ft | 368 kts | 156° |
| 2026-04-11 20:58 | 53.71186 | 157.94329 | 24099 ft | 367 kts | 156° |
| 2026-04-11 20:58 | 53.68997 | 157.96424 | 23642 ft | 365 kts | 156° |
| 2026-04-11 20:58 | 53.66793 | 157.98535 | 23206 ft | 363 kts | 155° |
| 2026-04-11 20:58 | 53.64651 | 158.00825 | 22751 ft | 365 kts | 149° |
| 2026-04-11 20:59 | 53.62652 | 158.03470 | 22310 ft | 366 kts | 146° |
| 2026-04-11 20:59 | 53.60703 | 158.06240 | 21855 ft | 365 kts | 144° |
| 2026-04-11 20:59 | 53.58775 | 158.09011 | 21411 ft | 363 kts | 144° |
| 2026-04-11 20:59 | 53.56855 | 158.11750 | 20966 ft | 361 kts | 144° |
| 2026-04-11 21:00 | 53.54936 | 158.14450 | 20528 ft | 359 kts | 144° |
| 2026-04-11 21:00 | 53.53016 | 158.17120 | 20087 ft | 357 kts | 144° |
| 2026-04-11 21:00 | 53.51100 | 158.19763 | 19636 ft | 355 kts | 144° |
| 2026-04-11 21:00 | 53.49193 | 158.22379 | 19187 ft | 349 kts | 144° |
| 2026-04-11 21:01 | 53.47374 | 158.24875 | 18738 ft | 330 kts | 144° |
| 2026-04-11 21:01 | 53.45626 | 158.27264 | 18357 ft | 328 kts | 144° |
| 2026-04-11 21:01 | 53.43859 | 158.29672 | 17950 ft | 326 kts | 144° |
| 2026-04-11 21:01 | 53.42102 | 158.32062 | 17531 ft | 324 kts | 144° |
| 2026-04-11 21:02 | 53.40358 | 158.34432 | 17128 ft | 322 kts | 144° |
| 2026-04-11 21:02 | 53.38619 | 158.36794 | 16728 ft | 321 kts | 144° |
| 2026-04-11 21:02 | 53.36884 | 158.39147 | 16307 ft | 321 kts | 144° |
| 2026-04-11 21:02 | 53.35150 | 158.41495 | 15889 ft | 320 kts | 144° |
| 2026-04-11 21:03 | 53.33416 | 158.43842 | 15473 ft | 319 kts | 144° |
| 2026-04-11 21:03 | 53.31704 | 158.46161 | 15065 ft | 317 kts | 144° |
| 2026-04-11 21:03 | 53.30001 | 158.48466 | 14643 ft | 305 kts | 144° |
| 2026-04-11 21:03 | 53.28393 | 158.50639 | 14268 ft | 298 kts | 145° |
| 2026-04-11 21:04 | 53.26792 | 158.52796 | 13893 ft | 294 kts | 144° |
| 2026-04-11 21:04 | 53.25206 | 158.54933 | 13507 ft | 292 kts | 144° |
| 2026-04-11 21:04 | 53.23637 | 158.57045 | 13136 ft | 288 kts | 144° |
| 2026-04-11 21:04 | 53.22074 | 158.59146 | 12745 ft | 285 kts | 144° |
| 2026-04-11 21:05 | 53.20542 | 158.61205 | 12391 ft | 281 kts | 144° |
| 2026-04-11 21:05 | 53.19048 | 158.63210 | 12027 ft | 277 kts | 144° |
| 2026-04-11 21:05 | 53.17555 | 158.65214 | 11670 ft | 274 kts | 144° |
| 2026-04-11 21:05 | 53.16059 | 158.67217 | 11312 ft | 270 kts | 144° |
| 2026-04-11 21:06 | 53.14618 | 158.69135 | 10961 ft | 265 kts | 146° |
| 2026-04-11 21:06 | 53.13055 | 158.70631 | 10581 ft | 258 kts | 157° |
| 2026-04-11 21:06 | 53.11430 | 158.71728 | 10204 ft | 245 kts | 159° |
| 2026-04-11 21:06 | 53.09827 | 158.72754 | 9870 ft | 249 kts | 159° |
| 2026-04-11 21:07 | 53.08195 | 158.73817 | 9519 ft | 253 kts | 158° |
| 2026-04-11 21:07 | 53.06557 | 158.74906 | 9137 ft | 250 kts | 158° |
| 2026-04-11 21:07 | 53.04970 | 158.75972 | 8772 ft | 243 kts | 156° |
| 2026-04-11 21:07 | 53.03426 | 158.77024 | 8407 ft | 238 kts | 156° |
| 2026-04-11 21:08 | 53.01906 | 158.78056 | 8143 ft | 244 kts | 156° |
| 2026-04-11 21:08 | 53.00322 | 158.79133 | 7800 ft | 246 kts | 159° |
| 2026-04-11 21:08 | 52.98664 | 158.79643 | 7409 ft | 244 kts | 182° |
| 2026-04-11 21:08 | 52.97044 | 158.78775 | 7022 ft | 251 kts | 206° |
| 2026-04-11 21:09 | 52.95658 | 158.76903 | 6545 ft | 265 kts | 225° |
| 2026-04-11 21:09 | 52.94977 | 158.75183 | 6191 ft | 276 kts | 239° |
| 2026-04-11 21:09 | 52.94215 | 158.72200 | 5718 ft | 284 kts | 244° |
| 2026-04-11 21:09 | 52.93281 | 158.68142 | 5059 ft | 271 kts | 246° |
| 2026-04-11 21:10 | 52.93000 | 158.65093 | 4346 ft | 268 kts | 276° |
| 2026-04-11 21:10 | 52.93616 | 158.62329 | 3944 ft | 251 kts | 304° |
| 2026-04-11 21:10 | 52.94346 | 158.60849 | 3781 ft | 242 kts | 319° |
| 2026-04-11 21:10 | 52.95723 | 158.59406 | 3526 ft | 228 kts | 339° |
| 2026-04-11 21:11 | 52.97155 | 158.58458 | 3353 ft | 216 kts | 342° |
| 2026-04-11 21:11 | 52.98537 | 158.57583 | 3113 ft | 209 kts | 342° |
| 2026-04-11 21:11 | 52.99871 | 158.56721 | 2913 ft | 200 kts | 342° |
| 2026-04-11 21:11 | 53.01138 | 158.55885 | 2692 ft | 191 kts | 342° |
| 2026-04-11 21:12 | 53.02327 | 158.55089 | 2487 ft | 180 kts | 341° |
| 2026-04-11 21:12 | 53.03463 | 158.54337 | 2359 ft | 176 kts | 341° |
| 2026-04-11 21:12 | 53.04587 | 158.53584 | 2166 ft | 173 kts | 341° |
| 2026-04-11 21:12 | 53.05691 | 158.52828 | 1979 ft | 170 kts | 340° |
| 2026-04-11 21:13 | 53.06799 | 158.52067 | 1818 ft | 175 kts | 339° |
| 2026-04-11 21:13 | 53.07919 | 158.51293 | 1627 ft | 172 kts | 339° |
| 2026-04-11 21:13 | 53.08994 | 158.50551 | 1384 ft | 162 kts | 339° |
| 2026-04-11 21:13 | 53.09994 | 158.49860 | 1197 ft | 150 kts | 339° |
| 2026-04-11 21:14 | 53.10948 | 158.49205 | 1029 ft | 145 kts | 338° |
| 2026-04-11 21:14 | 53.11855 | 158.48578 | 850 ft | 139 kts | 338° |
| 2026-04-11 21:14 | 53.12747 | 158.47961 | 701 ft | 139 kts | 338° |
| 2026-04-11 21:14 | 53.13646 | 158.47341 | 534 ft | 140 kts | 337° |
| 2026-04-11 21:15 | 53.14541 | 158.46720 | 364 ft | 139 kts | 338° |
| 2026-04-11 21:15 | 53.15431 | 158.46105 | 405 ft | 142 kts | 338° |
| 2026-04-11 21:15 | 53.16343 | 158.45476 | 880 ft | 143 kts | 338° |
| 2026-04-11 21:15 | 53.17324 | 158.44793 | 1653 ft | 166 kts | 338° |
| 2026-04-11 21:16 | 53.18511 | 158.43969 | 2245 ft | 202 kts | 339° |
| 2026-04-11 21:16 | 53.19920 | 158.42992 | 2902 ft | 231 kts | 339° |
| 2026-04-11 21:16 | 53.21444 | 158.41936 | 3903 ft | 245 kts | 341° |
| 2026-04-11 21:16 | 53.23070 | 158.40815 | 4856 ft | 260 kts | 340° |
| 2026-04-11 21:17 | 53.24781 | 158.39628 | 5889 ft | 273 kts | 340° |
| 2026-04-11 21:17 | 53.26572 | 158.38382 | 6735 ft | 284 kts | 339° |
| 2026-04-11 21:17 | 53.28419 | 158.37094 | 7191 ft | 290 kts | 339° |
| 2026-04-11 21:17 | 53.30291 | 158.35790 | 7198 ft | 297 kts | 339° |
| 2026-04-11 21:18 | 53.32190 | 158.34462 | 7197 ft | 294 kts | 339° |
| 2026-04-11 21:18 | 53.34063 | 158.33152 | 7202 ft | 291 kts | 339° |
| 2026-04-11 21:18 | 53.35883 | 158.31727 | 7182 ft | 288 kts | 326° |
| 2026-04-11 21:18 | 53.37190 | 158.29199 | 7201 ft | 291 kts | 293° |
| 2026-04-11 21:19 | 53.37614 | 158.25918 | 7195 ft | 290 kts | 265° |
| 2026-04-11 21:19 | 53.37153 | 158.22677 | 7205 ft | 286 kts | 239° |
| 2026-04-11 21:19 | 53.35961 | 158.20125 | 7192 ft | 275 kts | 214° |
| 2026-04-11 21:19 | 53.34308 | 158.18729 | 7191 ft | 263 kts | 189° |
| 2026-04-11 21:20 | 53.32516 | 158.18633 | 7197 ft | 257 kts | 166° |
| 2026-04-11 21:20 | 53.30862 | 158.19705 | 7203 ft | 255 kts | 148° |
| 2026-04-11 21:20 | 53.29490 | 158.21557 | 7183 ft | 254 kts | 128° |
| 2026-04-11 21:20 | 53.28591 | 158.24089 | 7197 ft | 254 kts | 118° |
| 2026-04-11 21:21 | 53.27779 | 158.26733 | 7197 ft | 256 kts | 118° |
| 2026-04-11 21:21 | 53.26962 | 158.29387 | 7208 ft | 257 kts | 118° |
| 2026-04-11 21:21 | 53.26139 | 158.32052 | 7195 ft | 259 kts | 118° |
| 2026-04-11 21:21 | 53.25312 | 158.34718 | 7194 ft | 259 kts | 118° |
| 2026-04-11 21:22 | 53.24479 | 158.37387 | 7193 ft | 258 kts | 118° |
| 2026-04-11 21:22 | 53.23647 | 158.40043 | 7192 ft | 258 kts | 118° |
| 2026-04-11 21:22 | 53.22827 | 158.42657 | 7194 ft | 257 kts | 119° |
| 2026-04-11 21:22 | 53.21998 | 158.45290 | 7192 ft | 256 kts | 119° |
| 2026-04-11 21:23 | 53.21177 | 158.47888 | 7180 ft | 247 kts | 119° |
| 2026-04-11 21:23 | 53.20399 | 158.50354 | 7174 ft | 234 kts | 119° |
| 2026-04-11 21:23 | 53.19653 | 158.52716 | 7186 ft | 231 kts | 119° |
| 2026-04-11 21:23 | 53.18900 | 158.55096 | 7194 ft | 232 kts | 119° |
| 2026-04-11 21:24 | 53.18147 | 158.57470 | 7188 ft | 230 kts | 119° |
| 2026-04-11 21:24 | 53.17401 | 158.59815 | 7186 ft | 228 kts | 119° |
| 2026-04-11 21:24 | 53.16661 | 158.62140 | 7184 ft | 226 kts | 120° |
| 2026-04-11 21:24 | 53.15933 | 158.64421 | 7187 ft | 225 kts | 120° |
| 2026-04-11 21:25 | 53.15199 | 158.66721 | 7189 ft | 223 kts | 120° |
| 2026-04-11 21:25 | 53.14266 | 158.68767 | 7199 ft | 224 kts | 137° |
| 2026-04-11 21:25 | 53.13089 | 158.70492 | 7201 ft | 227 kts | 142° |
| 2026-04-11 21:25 | 53.11688 | 158.71721 | 7208 ft | 230 kts | 157° |
| 2026-04-11 21:26 | 53.10182 | 158.72648 | 7120 ft | 232 kts | 158° |
| 2026-04-11 21:26 | 53.08658 | 158.73574 | 6946 ft | 232 kts | 158° |
| 2026-04-11 21:26 | 53.07158 | 158.74515 | 6774 ft | 228 kts | 157° |
| 2026-04-11 21:26 | 53.05716 | 158.75446 | 6594 ft | 222 kts | 156° |
| 2026-04-11 21:27 | 53.04282 | 158.76388 | 6410 ft | 221 kts | 156° |
| 2026-04-11 21:27 | 53.02852 | 158.77337 | 6249 ft | 221 kts | 156° |
| 2026-04-11 21:27 | 53.01421 | 158.78285 | 6061 ft | 221 kts | 156° |
| 2026-04-11 21:27 | 53.00010 | 158.79227 | 5885 ft | 224 kts | 157° |
| 2026-04-11 21:28 | 52.98399 | 158.79699 | 5889 ft | 255 kts | 181° |
| 2026-04-11 21:28 | 52.96566 | 158.78780 | 5777 ft | 289 kts | 207° |
| 2026-04-11 21:28 | 52.95191 | 158.76411 | 5412 ft | 286 kts | 239° |
| 2026-04-11 21:28 | 52.94601 | 158.73299 | 4841 ft | 278 kts | 252° |
| 2026-04-11 21:29 | 52.93989 | 158.70357 | 4404 ft | 264 kts | 244° |
| 2026-04-11 21:29 | 52.93290 | 158.67592 | 4243 ft | 264 kts | 245° |
| 2026-04-11 21:29 | 52.92995 | 158.64571 | 4082 ft | 271 kts | 277° |
| 2026-04-11 21:29 | 52.93721 | 158.61759 | 3944 ft | 265 kts | 311° |
| 2026-04-11 21:30 | 52.95149 | 158.59978 | 3698 ft | 252 kts | 337° |
| 2026-04-11 21:30 | 52.96745 | 158.58883 | 3432 ft | 246 kts | 342° |
| 2026-04-11 21:30 | 52.98328 | 158.57865 | 3172 ft | 241 kts | 341° |
| 2026-04-11 21:30 | 52.99868 | 158.56830 | 2917 ft | 235 kts | 340° |
| 2026-04-11 21:31 | 53.01353 | 158.55807 | 2675 ft | 223 kts | 341° |
| 2026-04-11 21:31 | 53.02716 | 158.54867 | 2481 ft | 199 kts | 341° |
| 2026-04-11 21:31 | 53.03908 | 158.54048 | 2294 ft | 174 kts | 341° |
| 2026-04-11 21:32 | 53.06150 | 158.52513 | 1912 ft | 166 kts | 340° |
| 2026-04-11 21:32 | 53.07169 | 158.51808 | 1733 ft | 151 kts | 340° |
| 2026-04-11 21:32 | 53.08111 | 158.51160 | 1572 ft | 148 kts | 339° |
| 2026-04-11 21:32 | 53.09045 | 158.50515 | 1382 ft | 143 kts | 339° |
| 2026-04-11 21:33 | 53.09955 | 158.49888 | 1216 ft | 140 kts | 339° |
| 2026-04-11 21:33 | 53.10858 | 158.49267 | 1054 ft | 140 kts | 338° |
| 2026-04-11 21:33 | 53.11764 | 158.48640 | 890 ft | 141 kts | 338° |
| 2026-04-11 21:33 | 53.12668 | 158.48017 | 722 ft | 140 kts | 338° |
| 2026-04-11 21:34 | 53.13565 | 158.47395 | 563 ft | 139 kts | 338° |
| 2026-04-11 21:34 | 53.14465 | 158.46772 | 394 ft | 142 kts | 338° |
| 2026-04-11 21:34 | 53.15373 | 158.46146 | 224 ft | 142 kts | 338° |
| 2026-04-11 21:34 | 53.16260 | 158.45532 | 140 ft | 129 kts | 337° |
| 2026-04-11 21:35 | 53.16951 | 158.45053 | 140 ft | 85 kts | 337° |
| 2026-04-11 21:35 | 53.17390 | 158.44750 | 143 ft | 57 kts | 338° |
| 2026-04-11 21:35 | 53.17595 | 158.44573 | 143 ft | 8 kts | 281° |
| 2026-04-11 21:35 | 53.17523 | 158.44449 | 142 ft | 29 kts | 215° |
| 2026-04-11 21:36 | 53.17463 | 158.44115 | 141 ft | 38 kts | 260° |
| 2026-04-11 21:36 | 53.17383 | 158.43852 | 141 ft | 24 kts | 234° |
| 2026-04-11 21:36 | 53.17304 | 158.43607 | 141 ft | 24 kts | 243° |
| 2026-04-11 21:36 | 53.17220 | 158.43372 | 141 ft | 24 kts | 234° |
| 2026-04-11 21:37 | 53.17146 | 158.43166 | 141 ft | 16 kts | 246° |
| 2026-04-11 21:37 | 53.17113 | 158.43029 | 141 ft | 9 kts | 248° |
| 2026-04-11 21:37 | 53.17092 | 158.42949 | 141 ft | 3 kts | 242° |
| 2026-04-11 21:37 | 53.17089 | 158.42941 | 141 ft | 0 kts | 242° |
| 2026-04-11 21:38 | 53.17087 | 158.42936 | 141 ft | 2 kts | 242° |
| 2026-04-11 21:38 | 53.17066 | 158.42891 | 141 ft | 8 kts | 226° |
| 2026-04-11 21:38 | 53.17038 | 158.42831 | 141 ft | 7 kts | 233° |
| 2026-04-11 21:38 | 53.17008 | 158.42784 | 141 ft | 4 kts | 192° |
| 2026-04-11 21:39 | 53.16980 | 158.42812 | 141 ft | 5 kts | 115° |
| 2026-04-11 21:39 | 53.16967 | 158.42893 | 141 ft | 8 kts | 105° |
| 2026-04-11 21:39 | 53.16966 | 158.42900 | 141 ft | 0 kts | 104° |